Time;durP1;ratioP1;P1;durP2;ratioP2;P2;SDS_P1;SDS_P2;PMS_P1;PMS_P2;Temp;Humidity;BMP_temperature;BMP_pressure;BME280_temperature;BME280_humidity;BME280_pressure;Samples;Min_cycle;Max_cycle;Signal;HPM_P1;HPM_P2
2022/07/25 00:02:12;;;;;;;;;8.00;8.00;;;;;28.59;69.38;100368.06;6278470;22;45188;-96
2022/07/25 00:04:38;;;;;;;;;8.33;7.67;;;;;28.54;69.53;100348.47;6278315;22;45233;-96
2022/07/25 00:07:03;;;;;;;;;8.33;7.67;;;;;28.56;69.75;100350.19;6278181;22;48146;-96
2022/07/25 00:09:28;;;;;;;;;8.67;6.67;;;;;28.49;70.02;100309.97;6304421;22;45262;-96
2022/07/25 00:11:54;;;;;;;;;10.00;9.00;;;;;28.43;69.81;100298.44;6278524;22;45666;-95
2022/07/25 00:14:19;;;;;;;;;11.33;8.00;;;;;28.41;70.29;100285.94;6278595;22;45406;-96
2022/07/25 00:16:44;;;;;;;;;11.67;10.00;;;;;28.30;70.36;100268.31;6277827;22;47164;-96
2022/07/25 00:19:10;;;;;;;;;8.67;8.67;;;;;28.28;70.08;100272.91;6303551;22;55150;-96
2022/07/25 00:21:35;;;;;;;;;11.00;10.00;;;;;28.23;71.06;100239.81;6278250;22;45500;-95
2022/07/25 00:24:00;;;;;;;;;9.67;9.67;;;;;28.15;70.90;100223.03;6277893;22;45215;-95
2022/07/25 00:26:26;;;;;;;;;10.67;10.67;;;;;28.14;70.66;100199.69;6278127;22;47950;-96
2022/07/25 00:28:51;;;;;;;;;13.00;9.67;;;;;28.07;71.40;100172.06;6278654;22;45346;-95
2022/07/25 00:31:16;;;;;;;;;11.00;9.00;;;;;28.04;71.78;100166.81;6277804;22;45656;-96
2022/07/25 00:33:42;;;;;;;;;12.00;10.00;;;;;27.97;71.52;100158.03;6278496;22;45693;-96
2022/07/25 00:36:08;;;;;;;;;12.00;11.00;;;;;27.98;72.08;100135.53;6278278;22;47951;-96
2022/07/25 00:38:34;;;;;;;;;13.00;10.67;;;;;27.92;72.27;100107.00;6278928;22;45403;-96
2022/07/25 00:40:59;;;;;;;;;11.67;11.33;;;;;27.93;72.25;100115.97;6281130;22;45369;-96
2022/07/25 00:43:25;;;;;;;;;15.33;10.67;;;;;27.92;72.13;100127.66;6281429;22;45303;-95
2022/07/25 00:45:50;;;;;;;;;10.00;7.33;;;;;27.83;72.39;100089.31;6285630;22;47307;-96
2022/07/25 00:48:17;;;;;;;;;10.67;10.67;;;;;27.85;72.86;100089.28;6286372;22;45279;-95
2022/07/25 00:50:42;;;;;;;;;13.33;12.33;;;;;27.79;73.18;100071.50;6285285;22;45468;-96
2022/07/25 00:53:08;;;;;;;;;10.00;9.00;;;;;27.70;73.99;100043.09;6286382;22;45289;-95
2022/07/25 00:55:33;;;;;;;;;11.00;11.00;;;;;27.68;73.90;100047.63;6286885;22;48099;-95
2022/07/25 00:57:59;;;;;;;;;10.00;9.00;;;;;27.63;74.08;100020.84;6286941;22;45177;-95
2022/07/25 01:00:24;;;;;;;;;8.33;8.33;;;;;27.63;74.17;100023.53;6287918;22;45322;-96
2022/07/25 01:02:50;;;;;;;;;9.67;9.00;;;;;27.51;74.34;99997.06;6287804;22;45254;-96
2022/07/25 01:05:15;;;;;;;;;9.00;8.00;;;;;27.60;74.36;100015.56;6287507;22;47083;-95
2022/07/25 01:07:41;;;;;;;;;7.33;7.33;;;;;27.42;74.43;100014.47;6287418;22;45505;-95
2022/07/25 01:10:07;;;;;;;;;10.00;8.00;;;;;27.49;74.50;100021.38;6285843;22;45297;-95
2022/07/25 01:12:50;;;;;;;;;8.33;8.33;;;;;27.51;75.08;99988.97;6279327;22;45251;-94
2022/07/25 01:15:18;;;;;;;;;5.67;5.67;;;;;27.50;74.95;99971.03;6277921;22;47104;-95
2022/07/25 01:17:43;;;;;;;;;12.00;8.00;;;;;27.43;75.07;99959.63;6278270;22;45289;-96
2022/07/25 01:25:44;;;;;;;;;8.67;6.67;;;;;27.36;75.39;99950.03;6305618;22;45383;-95
2022/07/25 01:28:10;;;;;;;;;7.33;7.33;;;;;27.31;75.50;99953.78;6278176;22;45290;-95
2022/07/25 01:30:35;;;;;;;;;8.00;8.00;;;;;27.36;75.75;99958.13;6304760;22;45350;-95
2022/07/25 01:33:00;;;;;;;;;7.33;7.00;;;;;27.28;76.21;99934.16;6278191;22;45257;-95
2022/07/25 01:35:26;;;;;;;;;9.00;7.33;;;;;27.22;75.82;99944.22;6277876;22;46939;-95
2022/07/25 01:37:51;;;;;;;;;7.67;7.00;;;;;27.25;76.06;99928.88;6277397;22;45401;-95
2022/07/25 01:40:16;;;;;;;;;5.67;5.67;;;;;27.20;76.32;99940.72;6304470;22;45340;-95
2022/07/25 01:42:42;;;;;;;;;9.00;8.00;;;;;27.12;76.41;99923.94;6303965;22;45403;-94
2022/07/25 01:45:08;;;;;;;;;9.00;7.67;;;;;27.14;76.63;99915.84;6303882;22;48529;-94
2022/07/25 01:47:34;;;;;;;;;7.00;7.00;;;;;27.02;76.77;99914.44;6277792;22;45392;-94
2022/07/25 01:49:59;;;;;;;;;7.00;7.00;;;;;26.99;76.75;99908.22;6278003;22;45644;-95
2022/07/25 01:52:24;;;;;;;;;10.67;7.00;;;;;26.97;76.95;99904.72;6277356;22;45321;-94
2022/07/25 01:54:49;;;;;;;;;7.00;7.00;;;;;26.92;76.76;99912.09;6278198;22;47449;-94
2022/07/25 01:57:15;;;;;;;;;7.00;6.67;;;;;26.92;77.45;99922.88;6277781;22;45696;-96
2022/07/25 01:59:40;;;;;;;;;5.00;5.00;;;;;26.84;76.55;99927.63;6277759;22;45458;-95
2022/07/25 02:02:07;;;;;;;;;4.00;4.00;;;;;26.73;77.31;99898.41;6277911;22;45678;-95
2022/07/25 02:04:34;;;;;;;;;9.33;6.00;;;;;26.77;76.49;99957.50;6278021;22;47502;-95
2022/07/25 02:06:59;;;;;;;;;5.00;5.00;;;;;26.66;76.27;99949.78;6277489;22;45284;-95
2022/07/25 02:09:25;;;;;;;;;5.67;4.67;;;;;26.56;76.34;99940.28;6278014;22;45289;-96
2022/07/25 02:11:50;;;;;;;;;7.00;6.00;;;;;26.47;76.40;99949.53;6278244;22;45362;-95
2022/07/25 02:14:16;;;;;;;;;6.00;5.00;;;;;26.46;76.50;99974.69;6278018;22;47366;-95
2022/07/25 02:16:41;;;;;;;;;5.00;4.00;;;;;26.37;76.29;99970.44;6277236;22;45670;-95
2022/07/25 02:19:07;;;;;;;;;4.33;4.33;;;;;26.29;75.96;99984.16;6277577;22;45451;-95
2022/07/25 02:21:32;;;;;;;;;5.00;3.67;;;;;26.10;76.35;99974.03;6277347;22;45362;-96
2022/07/25 02:23:58;;;;;;;;;6.00;4.00;;;;;26.18;76.22;99989.88;6303639;22;47005;-95
2022/07/25 02:26:23;;;;;;;;;3.67;3.67;;;;;26.06;76.09;99982.19;6277758;22;45552;-95
2022/07/25 02:28:49;;;;;;;;;6.33;4.00;;;;;26.01;75.54;100003.88;6277953;22;45327;-95
2022/07/25 02:31:15;;;;;;;;;2.33;2.33;;;;;25.93;76.10;99998.72;6303952;22;45421;-95
2022/07/25 02:33:40;;;;;;;;;4.00;3.00;;;;;25.93;75.98;100008.59;6277799;22;47203;-95
2022/07/25 02:36:06;;;;;;;;;2.33;2.33;;;;;25.81;76.17;99994.63;6277217;22;45353;-96
2022/07/25 02:38:31;;;;;;;;;3.67;2.33;;;;;25.77;76.08;99988.44;6277788;22;45136;-95
2022/07/25 02:40:56;;;;;;;;;2.33;2.33;;;;;25.66;75.98;99979.81;6278245;22;45476;-96
2022/07/25 02:43:22;;;;;;;;;4.33;2.67;;;;;25.66;76.01;99994.13;6280395;22;48162;-95
2022/07/25 02:45:47;;;;;;;;;2.33;1.00;;;;;25.66;75.78;100006.69;6280935;22;46102;-94
2022/07/25 02:48:13;;;;;;;;;2.00;2.00;;;;;25.59;75.99;100000.59;6286691;22;45179;-95
2022/07/25 02:50:38;;;;;;;;;2.33;2.00;;;;;25.49;75.99;99993.72;6286198;22;45365;-95
2022/07/25 02:53:04;;;;;;;;;2.00;2.00;;;;;25.52;76.24;99999.91;6285770;22;47341;-95
2022/07/25 02:55:30;;;;;;;;;1.33;1.00;;;;;25.47;76.72;99993.78;6285369;22;45308;-96
2022/07/25 02:57:55;;;;;;;;;0.67;0.67;;;;;25.42;76.10;100007.34;6284835;22;45306;-95
2022/07/25 03:00:21;;;;;;;;;1.33;1.33;;;;;25.39;76.11;99998.50;6285551;22;45333;-95
2022/07/25 03:02:47;;;;;;;;;1.00;1.00;;;;;25.35;76.36;100000.41;6287899;22;47004;-96
2022/07/25 03:05:16;;;;;;;;;3.33;1.00;;;;;25.27;76.12;100006.00;6284612;22;45270;-96
2022/07/25 03:07:43;;;;;;;;;1.33;1.33;;;;;25.27;76.06;100007.78;6284078;22;45385;-96
2022/07/25 03:10:11;;;;;;;;;2.67;2.00;;;;;25.20;76.40;99993.66;6281914;22;45421;-96
2022/07/25 03:12:37;;;;;;;;;2.00;2.00;;;;;25.24;76.21;100002.50;6304732;22;47112;-95
2022/07/25 03:15:05;;;;;;;;;3.67;3.00;;;;;25.17;76.14;99999.13;6279692;22;45392;-96
2022/07/25 03:17:30;;;;;;;;;2.33;2.00;;;;;25.20;76.53;100012.47;6278930;22;45323;-96
2022/07/25 03:19:56;;;;;;;;;2.00;1.00;;;;;25.09;76.24;100010.97;6276991;22;45404;-96
2022/07/25 03:22:23;;;;;;;;;1.00;1.00;;;;;25.14;76.15;100023.34;6277375;22;46920;-95
2022/07/25 03:24:48;;;;;;;;;2.00;2.00;;;;;24.99;76.32;100006.72;6281386;22;45236;-95
2022/07/25 03:27:14;;;;;;;;;3.00;2.00;;;;;24.97;76.50;100014.81;6279294;22;45441;-95
2022/07/25 03:29:40;;;;;;;;;1.00;1.00;;;;;24.95;76.46;100005.03;6278976;22;45298;-96
2022/07/25 03:32:06;;;;;;;;;2.00;2.00;;;;;24.95;76.35;100015.75;6278426;22;47120;-96
2022/07/25 03:34:31;;;;;;;;;0.00;0.00;;;;;24.96;76.01;100045.25;6278703;22;45577;-96
2022/07/25 03:36:57;;;;;;;;;1.67;1.33;;;;;24.95;76.43;100031.88;6278546;22;45439;-96
2022/07/25 03:39:23;;;;;;;;;1.00;0.00;;;;;24.84;76.76;100008.03;6280322;22;45205;-96
2022/07/25 03:41:48;;;;;;;;;1.67;1.67;;;;;24.88;76.55;100013.25;6279460;22;47156;-96
2022/07/25 03:44:14;;;;;;;;;1.33;1.33;;;;;24.74;77.06;100000.19;6280114;22;45432;-95
2022/07/25 03:46:39;;;;;;;;;0.67;0.67;;;;;24.67;76.69;99995.91;6280450;22;45544;-95
2022/07/25 03:49:04;;;;;;;;;1.00;1.00;;;;;24.76;76.91;100025.19;6278808;22;45461;-95
2022/07/25 03:51:30;;;;;;;;;0.00;0.00;;;;;24.74;77.15;100031.53;6278868;22;46802;-96
2022/07/25 03:54:01;;;;;;;;;2.67;1.67;;;;;24.66;76.89;100026.34;6278680;22;45381;-95
2022/07/25 03:56:27;;;;;;;;;0.67;0.67;;;;;24.60;76.32;100035.44;6279091;22;45298;-95
2022/07/25 03:58:53;;;;;;;;;1.00;1.00;;;;;24.55;76.25;100042.72;6279268;22;45368;-95
2022/07/25 04:01:18;;;;;;;;;2.00;0.67;;;;;24.59;76.49;100051.53;6278529;22;48134;-95
2022/07/25 04:03:44;;;;;;;;;1.33;1.33;;;;;24.50;76.68;100052.66;6307254;22;45198;-95
2022/07/25 04:06:09;;;;;;;;;2.67;2.00;;;;;24.52;76.52;100054.41;6279317;22;45311;-96
2022/07/25 04:08:34;;;;;;;;;1.00;1.00;;;;;24.48;76.59;100051.84;6279096;22;45781;-96
2022/07/25 04:11:00;;;;;;;;;1.00;1.00;;;;;24.46;76.26;100065.25;6278630;22;47261;-96
2022/07/25 04:13:25;;;;;;;;;0.00;0.00;;;;;24.40;76.36;100044.84;6278812;22;45345;-95
2022/07/25 04:15:50;;;;;;;;;1.33;0.00;;;;;24.36;76.10;100051.19;6278405;22;45350;-95
2022/07/25 04:18:16;;;;;;;;;1.00;1.00;;;;;24.33;76.33;100065.56;6278461;22;45422;-95
2022/07/25 04:20:41;;;;;;;;;1.00;1.00;;;;;24.27;76.69;100068.41;6278778;22;47237;-96
2022/07/25 04:23:06;;;;;;;;;0.00;0.00;;;;;24.21;76.42;100060.44;6278718;22;46028;-95
2022/07/25 04:25:33;;;;;;;;;0.33;0.33;;;;;24.29;76.41;100079.06;6280509;22;45286;-94
2022/07/25 04:27:58;;;;;;;;;0.67;0.67;;;;;24.21;76.64;100068.50;6279695;22;45316;-95
2022/07/25 04:30:23;;;;;;;;;1.33;0.00;;;;;24.10;77.03;100034.75;6278321;22;46866;-94
2022/07/25 04:32:49;;;;;;;;;0.00;0.00;;;;;24.09;76.78;100042.84;6277753;22;45320;-95
2022/07/25 04:35:14;;;;;;;;;1.00;1.00;;;;;24.10;77.62;100023.16;6277888;22;45418;-94
2022/07/25 04:37:39;;;;;;;;;0.00;0.00;;;;;24.17;77.43;100018.53;6277910;22;45324;-95
2022/07/25 04:40:05;;;;;;;;;0.67;0.33;;;;;24.05;77.93;100007.19;6282488;22;47168;-94
2022/07/25 04:42:31;;;;;;;;;1.67;1.67;;;;;24.07;77.73;100015.19;6286501;22;45373;-95
2022/07/25 04:44:56;;;;;;;;;1.67;1.00;;;;;24.08;77.81;100003.53;6286112;22;45833;-95
2022/07/25 04:47:22;;;;;;;;;1.33;0.67;;;;;24.09;77.93;99997.28;6284846;22;44818;-96
2022/07/25 04:49:47;;;;;;;;;1.33;1.00;;;;;24.10;78.53;99982.94;6281841;22;47758;-96
2022/07/25 04:52:12;;;;;;;;;0.33;0.33;;;;;24.11;78.41;99977.56;6281945;22;45949;-96
2022/07/25 04:54:38;;;;;;;;;1.00;1.00;;;;;24.15;78.55;99956.03;6284363;22;45462;-96
2022/07/25 04:57:04;;;;;;;;;3.00;1.00;;;;;24.13;78.97;99926.59;6286117;22;45396;-96
2022/07/25 04:59:29;;;;;;;;;0.00;0.00;;;;;24.13;79.14;99923.00;6285282;22;46802;-95
2022/07/25 05:01:54;;;;;;;;;1.33;1.33;;;;;24.11;79.38;99904.31;6286668;22;45651;-95
2022/07/25 05:04:20;;;;;;;;;0.00;0.00;;;;;24.15;79.78;99908.66;6287012;22;45478;-95
2022/07/25 05:06:48;;;;;;;;;1.67;0.67;;;;;24.09;79.96;99882.03;6279819;22;45403;-96
2022/07/25 05:09:13;;;;;;;;;0.67;0.67;;;;;24.15;80.02;99880.97;6279005;22;47107;-96
2022/07/25 05:11:39;;;;;;;;;2.00;0.00;;;;;24.13;80.10;99875.66;6278372;22;45287;-95
2022/07/25 05:14:04;;;;;;;;;2.33;2.33;;;;;24.13;79.78;99878.34;6278342;22;45342;-96
2022/07/25 05:16:29;;;;;;;;;1.67;1.67;;;;;24.19;80.77;99862.09;6277864;22;45247;-96
2022/07/25 05:18:55;;;;;;;;;1.67;1.00;;;;;24.21;80.90;99865.63;6277707;22;47318;-96
2022/07/25 05:21:20;;;;;;;;;3.00;1.33;;;;;24.16;81.25;99842.53;6277763;22;45259;-96
2022/07/25 05:23:45;;;;;;;;;0.67;0.67;;;;;24.20;81.02;99846.88;6278172;22;45344;-96
2022/07/25 05:26:11;;;;;;;;;3.00;1.67;;;;;24.15;81.39;99833.59;6278332;22;45241;-96
2022/07/25 05:28:36;;;;;;;;;1.00;1.00;;;;;24.33;81.48;99844.78;6278270;22;47895;-96
2022/07/25 05:31:02;;;;;;;;;0.33;0.33;;;;;24.32;81.09;99843.94;6277803;22;45364;-96
2022/07/25 05:33:27;;;;;;;;;1.00;1.00;;;;;24.32;81.65;99848.41;6278181;22;45415;-95
2022/07/25 05:35:52;;;;;;;;;1.00;1.00;;;;;24.33;81.53;99848.34;6277855;22;45372;-96
2022/07/25 05:38:18;;;;;;;;;0.33;0.33;;;;;24.36;81.65;99843.81;6277942;22;48121;-96
2022/07/25 05:40:44;;;;;;;;;0.00;0.00;;;;;24.33;81.70;99840.31;6278134;22;45914;-96
2022/07/25 05:43:09;;;;;;;;;1.00;1.00;;;;;24.46;82.45;99856.06;6277875;22;45305;-95
2022/07/25 05:45:35;;;;;;;;;0.00;0.00;;;;;24.41;82.07;99839.22;6277804;22;46574;-96
2022/07/25 05:48:00;;;;;;;;;3.00;1.00;;;;;24.51;82.08;99843.41;6277903;22;48086;-96
2022/07/25 05:50:25;;;;;;;;;0.00;0.00;;;;;24.46;82.38;99834.59;6278956;22;45565;-96
2022/07/25 05:52:51;;;;;;;;;2.33;1.00;;;;;24.50;82.50;99835.41;6280956;22;45265;-96
2022/07/25 05:55:16;;;;;;;;;1.33;1.33;;;;;24.61;82.81;99835.97;6280617;22;45167;-96
2022/07/25 05:57:42;;;;;;;;;0.00;0.00;;;;;24.66;82.97;99841.25;6278732;22;48078;-96
2022/07/25 06:00:08;;;;;;;;;1.00;1.00;;;;;24.78;82.70;99853.41;6305643;22;46053;-95
2022/07/25 06:02:33;;;;;;;;;1.00;1.00;;;;;24.75;83.36;99823.97;6279888;22;45270;-95
2022/07/25 06:04:58;;;;;;;;;0.00;0.00;;;;;24.83;82.32;99851.47;6279552;22;45207;-96
2022/07/25 06:07:24;;;;;;;;;0.00;0.00;;;;;24.87;82.66;99852.25;6306572;22;47363;-96
2022/07/25 06:09:49;;;;;;;;;0.00;0.00;;;;;24.90;82.61;99852.19;6280365;22;45229;-96
2022/07/25 06:12:15;;;;;;;;;1.00;1.00;;;;;24.94;82.68;99850.28;6279690;22;45408;-95
2022/07/25 06:14:40;;;;;;;;;0.33;0.33;;;;;25.06;82.61;99867.88;6279924;22;45620;-96
2022/07/25 06:17:05;;;;;;;;;1.67;1.67;;;;;25.03;82.88;99852.72;6279415;22;48233;-96
2022/07/25 06:19:31;;;;;;;;;1.00;1.00;;;;;25.00;83.11;99834.91;6279362;22;45233;-95
2022/07/25 06:21:56;;;;;;;;;1.33;1.33;;;;;25.18;82.68;99862.13;6278099;22;45383;-95
2022/07/25 06:24:21;;;;;;;;;0.00;0.00;;;;;25.22;82.84;99877.25;6280858;22;45300;-96
2022/07/25 06:26:47;;;;;;;;;1.00;1.00;;;;;25.27;82.49;99886.94;6279174;22;46929;-94
2022/07/25 06:29:12;;;;;;;;;1.67;1.00;;;;;25.34;82.65;99877.78;6280709;22;45417;-95
2022/07/25 06:31:37;;;;;;;;;2.00;2.00;;;;;25.45;82.61;99896.25;6280837;22;45392;-94
2022/07/25 06:34:15;;;;;;;;;0.33;0.33;;;;;25.51;82.62;99895.19;6311258;22;45857;-96
2022/07/25 06:36:40;;;;;;;;;0.67;0.67;;;;;25.53;82.63;99896.03;6280227;22;46933;-96
2022/07/25 06:39:06;;;;;;;;;1.00;1.00;;;;;25.58;82.92;99902.13;6280430;22;45352;-95
2022/07/25 06:41:44;;;;;;;;;1.00;1.00;;;;;25.65;82.64;99897.44;6280522;22;45781;-96
2022/07/25 06:44:10;;;;;;;;;1.00;1.00;;;;;25.69;82.63;99899.13;6280615;22;45351;-90
2022/07/25 06:46:35;;;;;;;;;1.00;1.00;;;;;25.77;82.70;99912.34;6274770;22;48311;-88
2022/07/25 06:49:00;;;;;;;;;0.33;0.33;;;;;25.77;82.37;99909.66;6307309;22;59594;-91
2022/07/25 06:51:25;;;;;;;;;0.33;0.33;;;;;25.85;82.31;99920.13;6306579;22;61593;-90
2022/07/25 06:53:51;;;;;;;;;0.00;0.00;;;;;25.85;82.68;99923.72;6305992;22;45288;-91
2022/07/25 06:56:16;;;;;;;;;0.33;0.33;;;;;25.87;82.73;99912.94;6308667;22;45568;-88
2022/07/25 06:58:41;;;;;;;;;1.00;1.00;;;;;25.89;82.44;99921.81;6279861;22;62608;-90
2022/07/25 07:01:07;;;;;;;;;1.67;1.67;;;;;25.92;82.64;99927.09;6275308;22;45314;-89
2022/07/25 07:03:36;;;;;;;;;2.33;2.00;;;;;25.95;82.77;99929.66;6305460;22;45311;-88
2022/07/25 07:06:06;;;;;;;;;2.00;2.00;;;;;26.00;82.81;99930.38;6273864;22;47032;-89
2022/07/25 07:08:32;;;;;;;;;3.00;1.33;;;;;26.02;82.87;99930.38;6302385;22;45471;-88
2022/07/25 07:10:57;;;;;;;;;1.00;1.00;;;;;26.06;82.71;99936.50;6304036;22;45349;-93
2022/07/25 07:13:23;;;;;;;;;2.00;1.67;;;;;26.10;82.86;99944.44;6276699;22;45560;-90
2022/07/25 07:15:49;;;;;;;;;1.00;1.00;;;;;26.18;82.83;99951.38;6303363;22;46356;-89
2022/07/25 07:18:16;;;;;;;;;2.00;2.00;;;;;26.18;83.02;99946.00;6276198;22;45604;-91
2022/07/25 07:20:42;;;;;;;;;3.00;1.33;;;;;26.21;82.64;99954.81;6275101;22;45426;-90
2022/07/25 07:23:08;;;;;;;;;2.33;1.00;;;;;26.25;82.87;99961.00;6304103;22;45250;-90
2022/07/25 07:25:33;;;;;;;;;2.00;0.33;;;;;26.29;82.71;99953.69;6303988;22;45512;-91
2022/07/25 07:27:59;;;;;;;;;2.00;1.00;;;;;26.31;82.54;99962.59;6276849;22;45318;-90
2022/07/25 07:30:24;;;;;;;;;1.67;1.00;;;;;26.33;82.66;99969.69;6304556;22;46409;-92
2022/07/25 07:32:49;;;;;;;;;1.00;1.00;;;;;26.40;82.47;99966.78;6276491;22;45319;-91
2022/07/25 07:35:15;;;;;;;;;2.00;1.00;;;;;26.44;82.57;99965.78;6276322;22;47400;-92
2022/07/25 07:37:45;;;;;;;;;0.67;0.33;;;;;26.51;82.99;99955.69;6278075;22;45348;-95
2022/07/25 07:40:12;;;;;;;;;1.00;0.00;;;;;26.60;83.16;99954.47;6277999;22;45293;-94
2022/07/25 07:42:43;;;;;;;;;1.00;1.00;;;;;26.66;82.84;99965.94;6277518;22;45495;-93
2022/07/25 07:45:14;;;;;;;;;1.00;1.00;;;;;26.75;83.24;99962.03;6304711;22;47127;-93
2022/07/25 07:47:40;;;;;;;;;2.00;0.67;;;;;26.82;83.37;99953.75;6304776;22;45233;-93
2022/07/25 07:50:06;;;;;;;;;1.00;1.00;;;;;26.95;83.06;99970.34;6277423;22;45262;-94
2022/07/25 07:52:31;;;;;;;;;0.00;0.00;;;;;26.98;82.54;99970.22;6277551;22;45317;-94
2022/07/25 07:57:40;;;;;;;;;1.67;0.00;;;;;27.16;82.86;99997.47;6305507;22;45381;-96
2022/07/25 08:00:06;;;;;;;;;0.33;0.33;;;;;27.21;83.09;100007.09;6278001;22;52435;-94
2022/07/25 08:02:32;;;;;;;;;3.00;1.33;;;;;27.21;82.59;100015.19;6306113;22;45347;-96
2022/07/25 08:04:57;;;;;;;;;1.00;1.00;;;;;27.21;82.78;99999.03;6277966;22;46011;-92
2022/07/25 08:07:22;;;;;;;;;0.00;0.00;;;;;27.38;82.20;100026.28;6276890;22;45354;-95
2022/07/25 08:09:48;;;;;;;;;0.67;0.67;;;;;27.52;82.53;100025.78;6277162;22;46519;-90
2022/07/25 08:12:13;;;;;;;;;0.00;0.00;;;;;27.76;82.19;100036.56;6304437;22;45382;-87
2022/07/25 08:14:39;;;;;;;;;0.00;0.00;;;;;27.98;82.00;100039.34;6274467;22;48292;-85
2022/07/25 08:17:04;;;;;;;;;0.33;0.33;;;;;28.09;81.35;100071.25;6275042;22;45470;-86
2022/07/25 08:19:30;;;;;;;;;1.00;1.00;;;;;28.14;80.74;100083.72;6291666;22;45406;-86
2022/07/25 08:21:55;;;;;;;;;1.00;1.00;;;;;28.18;80.65;100102.41;6268827;22;45567;-85
2022/07/25 08:24:20;;;;;;;;;2.00;1.00;;;;;28.20;80.53;100107.72;6271969;22;52022;-86
2022/07/25 08:26:46;;;;;;;;;0.67;0.67;;;;;28.36;80.93;100115.22;6272397;22;45382;-85
2022/07/25 08:29:11;;;;;;;;;0.00;0.00;;;;;28.49;80.69;100119.22;6273086;22;45302;-85
2022/07/25 08:31:36;;;;;;;;;0.00;0.00;;;;;28.59;80.64;100135.94;6271654;22;57911;-86
2022/07/25 08:34:02;;;;;;;;;0.00;0.00;;;;;28.69;80.15;100144.53;6272567;22;51069;-85
2022/07/25 08:36:27;;;;;;;;;0.00;0.00;;;;;28.73;80.27;100167.78;6272342;22;45301;-84
2022/07/25 08:38:53;;;;;;;;;0.00;0.00;;;;;28.78;79.87;100165.78;6272201;22;45221;-83
2022/07/25 08:41:18;;;;;;;;;0.00;0.00;;;;;28.73;79.88;100183.09;6272351;22;45510;-83
2022/07/25 08:43:46;;;;;;;;;0.00;0.00;;;;;28.64;79.55;100195.13;6269653;22;46685;-84
2022/07/25 08:46:13;;;;;;;;;0.00;0.00;;;;;28.58;79.69;100187.28;6272262;22;45324;-84
2022/07/25 08:48:39;;;;;;;;;0.33;0.33;;;;;28.61;80.09;100177.22;6270004;22;45329;-85
2022/07/25 08:51:05;;;;;;;;;0.00;0.00;;;;;28.72;80.11;100182.22;6271560;22;45293;-84
2022/07/25 08:53:31;;;;;;;;;0.00;0.00;;;;;28.90;80.45;100185.09;6271700;22;46983;-84
2022/07/25 08:55:57;;;;;;;;;0.00;0.00;;;;;29.05;80.02;100198.91;6271991;22;45485;-85
2022/07/25 08:58:22;;;;;;;;;0.33;0.33;;;;;29.03;79.06;100219.69;6269406;22;45344;-85
2022/07/25 09:00:48;;;;;;;;;1.00;1.00;;;;;28.91;79.21;100219.28;6271884;22;45667;-85
2022/07/25 09:03:13;;;;;;;;;0.00;0.00;;;;;28.74;78.82;100237.03;6272158;22;45348;-84
2022/07/25 09:05:39;;;;;;;;;0.00;0.00;;;;;28.64;79.09;100235.63;6268230;22;45353;-84
2022/07/25 09:08:10;;;;;;;;;1.00;1.00;;;;;28.53;79.60;100236.03;6271188;22;45414;-85
2022/07/25 09:10:36;;;;;;;;;0.67;0.67;;;;;28.36;79.40;100231.25;6272203;22;45424;-84
2022/07/25 09:13:09;;;;;;;;;0.00;0.00;;;;;28.36;79.77;100221.34;6271742;22;46494;-85
2022/07/25 09:15:49;;;;;;;;;1.00;1.00;;;;;28.43;80.26;100209.38;6272649;22;45364;-85
2022/07/25 09:18:16;;;;;;;;;1.67;0.00;;;;;28.59;79.69;100218.72;6271914;22;45258;-84
2022/07/25 09:20:50;;;;;;;;;0.33;0.33;;;;;28.74;79.60;100241.53;6297971;22;45563;-84
2022/07/25 09:23:32;;;;;;;;;0.33;0.33;;;;;28.79;79.55;100261.13;6302144;22;46177;-85
2022/07/25 09:26:15;;;;;;;;;1.00;1.00;;;;;28.82;79.21;100274.53;6301425;22;45319;-84
2022/07/25 09:28:48;;;;;;;;;1.33;1.33;;;;;28.93;79.39;100255.19;6303029;22;45370;-84
2022/07/25 09:31:15;;;;;;;;;1.00;1.00;;;;;29.08;79.38;100272.59;6302621;22;45300;-84
2022/07/25 09:33:59;;;;;;;;;0.00;0.00;;;;;29.22;79.16;100304.47;6303336;22;46346;-84
2022/07/25 09:36:24;;;;;;;;;0.33;0.33;;;;;29.20;78.53;100322.59;6302081;22;45662;-84
2022/07/25 09:39:00;;;;;;;;;2.33;1.00;;;;;29.15;78.89;100311.09;6303144;22;45628;-84
2022/07/25 09:41:36;;;;;;;;;0.67;0.67;;;;;29.32;78.81;100317.66;6303517;22;45396;-84
2022/07/25 09:44:03;;;;;;;;;0.00;0.00;;;;;29.60;79.06;100323.72;6300043;22;46256;-84
2022/07/25 09:46:30;;;;;;;;;1.00;1.00;;;;;29.99;77.11;100370.81;6302647;22;45546;-85
2022/07/25 09:48:57;;;;;;;;;0.00;0.00;;;;;30.18;76.85;100391.66;6303435;22;45291;-85
2022/07/25 09:51:26;;;;;;;;;2.00;0.00;;;;;30.09;76.41;100415.47;6301664;22;45423;-85
2022/07/25 09:53:52;;;;;;;;;0.00;0.00;;;;;29.88;76.51;100431.66;6302771;22;45300;-84
2022/07/25 09:56:17;;;;;;;;;0.33;0.00;;;;;29.59;76.14;100443.63;6302989;22;45433;-84
2022/07/25 09:58:43;;;;;;;;;1.00;1.00;;;;;29.30;76.50;100439.31;6302692;22;45260;-83
2022/07/25 10:01:12;;;;;;;;;2.00;0.33;;;;;29.08;76.61;100425.72;6302667;22;45266;-84
2022/07/25 10:03:50;;;;;;;;;1.00;1.00;;;;;28.96;77.56;100389.25;6303279;22;46383;-84
2022/07/25 10:06:23;;;;;;;;;0.00;0.00;;;;;29.05;77.85;100374.50;6301917;22;45430;-84
2022/07/25 10:08:50;;;;;;;;;2.00;2.00;;;;;29.34;78.51;100357.19;6302516;22;45336;-83
2022/07/25 10:11:24;;;;;;;;;1.00;1.00;;;;;29.47;78.08;100399.03;6303105;22;45379;-85
2022/07/25 10:13:50;;;;;;;;;1.00;1.00;;;;;29.45;77.53;100400.00;6274639;22;46233;-83
2022/07/25 10:16:27;;;;;;;;;1.00;1.00;;;;;29.54;77.47;100411.38;6302504;22;45645;-83
2022/07/25 10:18:55;;;;;;;;;4.00;1.00;;;;;29.61;77.64;100415.56;6302124;22;45233;-84
2022/07/25 10:21:22;;;;;;;;;2.00;2.00;;;;;29.78;77.11;100439.28;6298783;22;45358;-85
2022/07/25 10:24:03;;;;;;;;;1.00;1.00;;;;;29.85;76.71;100453.44;6301914;22;46501;-86
2022/07/25 10:26:29;;;;;;;;;1.67;1.00;;;;;29.81;77.09;100454.50;6303595;22;45351;-87
2022/07/25 10:28:57;;;;;;;;;1.00;1.00;;;;;29.88;76.87;100447.91;6302965;22;45572;-87
2022/07/25 10:31:33;;;;;;;;;2.00;0.00;;;;;30.02;77.00;100468.09;6302888;22;45660;-87
2022/07/25 10:34:04;;;;;;;;;1.67;0.67;;;;;30.06;76.16;100482.38;6302468;22;45394;-87
2022/07/25 10:36:43;;;;;;;;;1.00;1.00;;;;;30.13;76.33;100488.41;6274901;22;45363;-86
2022/07/25 10:39:11;;;;;;;;;0.00;0.00;;;;;30.15;76.52;100492.81;6276734;22;45305;-85
2022/07/25 10:41:42;;;;;;;;;2.00;2.00;;;;;30.08;75.75;100502.13;6305291;22;45329;-86
2022/07/25 10:44:13;;;;;;;;;0.67;0.67;;;;;30.00;76.26;100513.25;6304585;22;45405;-86
2022/07/25 10:46:39;;;;;;;;;0.33;0.33;;;;;29.87;75.89;100505.63;6275672;22;45486;-86
2022/07/25 10:49:06;;;;;;;;;0.00;0.00;;;;;29.73;76.12;100518.84;6304086;22;45304;-87
2022/07/25 10:51:34;;;;;;;;;3.00;1.67;;;;;29.58;76.17;100517.59;6303903;22;45331;-87
2022/07/25 10:54:12;;;;;;;;;1.00;0.00;;;;;29.41;76.33;100498.34;6303608;22;47200;-87
2022/07/25 10:56:49;;;;;;;;;1.33;1.33;;;;;29.38;76.39;100500.31;6276102;22;45366;-87
2022/07/25 10:59:34;;;;;;;;;1.00;1.00;;;;;29.40;77.08;100495.72;6304069;22;45221;-87
2022/07/25 11:02:00;;;;;;;;;2.67;2.67;;;;;29.45;76.27;100509.94;6275420;22;45614;-87
2022/07/25 11:04:26;;;;;;;;;1.00;1.00;;;;;29.47;76.38;100517.97;6303139;22;46489;-87
2022/07/25 11:06:52;;;;;;;;;1.00;1.00;;;;;29.98;76.95;100497.09;6303762;22;45427;-88
2022/07/25 11:09:23;;;;;;;;;1.67;1.67;;;;;30.26;76.35;100541.06;6303770;22;45468;-87
2022/07/25 11:11:50;;;;;;;;;2.00;2.00;;;;;30.47;76.02;100542.97;6304774;22;45331;-87
2022/07/25 11:14:37;;;;;;;;;3.33;3.00;;;;;31.19;75.69;100548.06;6304458;22;46218;-88
2022/07/25 11:17:21;;;;;;;;;2.00;1.00;;;;;31.47;74.28;100619.16;6303311;22;45343;-87
2022/07/25 11:20:14;;;;;;;;;0.33;0.33;;;;;31.53;73.58;100648.72;6303703;22;45293;-88
2022/07/25 11:22:40;;;;;;;;;2.00;2.00;;;;;31.79;73.01;100657.50;6299472;22;45507;-86
2022/07/25 11:25:12;;;;;;;;;5.00;3.67;;;;;32.21;73.28;100673.72;6303361;22;45338;-86
2022/07/25 11:27:38;;;;;;;;;3.00;1.33;;;;;32.65;71.88;100701.50;6276745;22;45254;-87
2022/07/25 11:30:08;;;;;;;;;0.00;0.00;;;;;33.33;70.64;100750.75;6275997;22;45254;-87
2022/07/25 11:32:45;;;;;;;;;1.33;1.33;;;;;35.26;70.42;100773.03;6303667;22;45280;-87
2022/07/25 11:35:13;;;;;;;;;1.67;1.00;;;;;37.36;67.32;100875.84;6303263;22;45658;-87